Time;durP1;ratioP1;P1;durP2;ratioP2;P2;SDS_P1;SDS_P2;PMS_P1;PMS_P2;Temp;Humidity;BMP_temperature;BMP_pressure;BME280_temperature;BME280_humidity;BME280_pressure;Samples;Min_cycle;Max_cycle;Signal;HPM_P1;HPM_P2
2021/06/22 00:03:28;;;;;;;13.68;3.90;;;13.30;99.90;;;;;;5797639;40;20176;-71
2021/06/22 00:07:30;;;;;;;11.60;3.33;;;13.30;99.90;;;;;;5789925;40;20065;-71
2021/06/22 00:11:32;;;;;;;12.35;4.18;;;13.30;99.90;;;;;;5802162;40;20049;-72
2021/06/22 00:15:34;;;;;;;11.63;3.55;;;13.30;99.90;;;;;;5797338;40;20061;-71
2021/06/22 00:19:36;;;;;;;;;;;13.30;99.90;;;;;;5792139;40;20357;-71
2021/06/22 00:23:38;;;;;;;10.48;3.72;;;13.30;99.90;;;;;;5806153;40;19943;-71
2021/06/22 00:27:40;;;;;;;11.55;3.83;;;13.30;99.90;;;;;;5785022;40;20101;-71
2021/06/22 00:31:42;;;;;;;11.65;3.72;;;13.30;99.90;;;;;;5790456;40;20464;-71
2021/06/22 00:35:43;;;;;;;11.85;4.13;;;12.60;99.90;;;;;;5788202;40;20071;-71
2021/06/22 00:39:46;;;;;;;13.20;3.80;;;13.30;99.90;;;;;;5807100;40;20148;-71
2021/06/22 00:43:48;;;;;;;12.88;3.83;;;13.50;99.90;;;;;;5790324;40;20065;-71
2021/06/22 00:47:51;;;;;;;14.25;3.70;;;13.30;99.90;;;;;;5786928;40;20339;-71
2021/06/22 00:51:53;;;;;;;14.52;4.47;;;13.30;99.90;;;;;;5805926;40;20390;-71
2021/06/22 00:56:03;;;;;;;13.48;4.10;;;13.30;99.90;;;;;;5794923;41;20063;-71
2021/06/22 01:00:11;;;;;;;14.55;4.22;;;13.30;99.90;;;;;;5791865;40;20052;-72
2021/06/22 01:04:18;;;;;;;14.57;4.18;;;13.30;99.90;;;;;;5791154;40;20428;-71
2021/06/22 01:08:33;;;;;;;13.82;3.30;;;13.30;99.90;;;;;;5781847;40;20618;-71
2021/06/22 01:12:36;;;;;;;13.00;3.20;;;13.20;99.90;;;;;;5788708;40;20417;-71
2021/06/22 01:16:38;;;;;;;12.10;3.85;;;13.20;99.90;;;;;;5792402;40;20143;-71
2021/06/22 01:20:40;;;;;;;10.85;3.75;;;13.70;99.90;;;;;;5789468;40;20116;-71
2021/06/22 01:24:42;;;;;;;;;;;13.20;99.90;;;;;;5789741;40;20118;-71
2021/06/22 01:28:45;;;;;;;16.27;3.75;;;13.20;99.90;;;;;;5788999;40;19986;-72
2021/06/22 01:32:49;;;;;;;15.98;4.22;;;13.10;99.90;;;;;;5791582;40;20438;-70
2021/06/22 01:36:53;;;;;;;20.17;4.07;;;13.10;99.90;;;;;;5796027;40;20049;-73
2021/06/22 01:40:56;;;;;;;12.32;4.05;;;13.10;99.90;;;;;;5802998;40;20044;-72
2021/06/22 01:44:58;;;;;;;;;;;13.10;99.90;;;;;;5797538;40;20049;-71
2021/06/22 01:49:00;;;;;;;11.07;3.17;;;13.10;99.90;;;;;;5803280;40;19974;-72
2021/06/22 01:53:08;;;;;;;16.45;4.05;;;13.10;99.90;;;;;;5806847;40;20080;-71
2021/06/22 01:57:10;;;;;;;16.38;4.57;;;13.10;99.90;;;;;;5790806;40;20065;-71
2021/06/22 02:01:20;;;;;;;11.30;3.80;;;13.10;99.90;;;;;;5798393;40;20056;-71
2021/06/22 02:05:36;;;;;;;12.73;4.40;;;13.10;99.90;;;;;;5798554;40;20041;-71
2021/06/22 02:09:39;;;;;;;13.32;3.65;;;13.10;99.90;;;;;;5807175;40;20101;-71
2021/06/22 02:13:43;;;;;;;16.35;4.03;;;13.10;99.90;;;;;;5806947;40;20060;-72
2021/06/22 02:17:50;;;;;;;14.85;4.30;;;13.10;99.90;;;;;;5788311;40;20064;-73
2021/06/22 02:21:52;;;;;;;;;;;13.10;99.90;;;;;;5789823;40;20048;-71
2021/06/22 02:26:00;;;;;;;17.52;5.15;;;13.00;99.90;;;;;;5790494;40;20394;-71
2021/06/22 02:30:06;;;;;;;14.98;4.20;;;13.00;99.90;;;;;;5807403;40;20096;-72
2021/06/22 02:34:13;;;;;;;15.60;4.00;;;12.90;99.90;;;;;;5792138;40;20100;-73
2021/06/22 02:38:17;;;;;;;12.50;3.70;;;12.90;99.90;;;;;;5804560;40;20052;-74
2021/06/22 02:42:24;;;;;;;19.33;4.88;;;12.90;99.90;;;;;;5806821;40;20140;-72
2021/06/22 02:46:29;;;;;;;19.90;4.35;;;12.90;99.90;;;;;;5805764;40;20064;-71
2021/06/22 02:50:33;;;;;;;23.15;4.38;;;12.80;99.90;;;;;;5799493;40;20460;-72
2021/06/22 02:54:38;;;;;;;17.52;4.15;;;12.80;99.90;;;;;;5789157;40;20045;-71
2021/06/22 02:58:40;;;;;;;15.02;4.20;;;12.80;99.90;;;;;;5788273;40;20053;-70
2021/06/22 03:02:49;;;;;;;23.15;4.53;;;12.70;99.90;;;;;;5791564;40;20452;-70
2021/06/22 03:06:52;;;;;;;15.38;4.68;;;12.70;99.90;;;;;;5785068;40;20428;-70
2021/06/22 03:11:02;;;;;;;20.35;4.00;;;12.60;99.90;;;;;;5788981;41;20072;-70
2021/06/22 03:15:10;;;;;;;14.70;4.15;;;12.60;99.90;;;;;;5788913;40;20147;-71
2021/06/22 03:19:14;;;;;;;17.55;4.40;;;12.60;99.90;;;;;;5785499;40;20051;-71
2021/06/22 03:23:28;;;;;;;13.38;4.13;;;13.00;99.90;;;;;;5806430;40;20428;-70
2021/06/22 03:27:31;;;;;;;10.57;4.18;;;12.50;99.90;;;;;;5806564;40;20068;-70
2021/06/22 03:31:53;;;;;;;11.38;3.80;;;12.50;99.90;;;;;;5786474;41;20148;-70
2021/06/22 03:35:55;;;;;;;17.10;4.25;;;12.60;99.90;;;;;;5804390;40;20079;-70
2021/06/22 03:39:57;;;;;;;15.95;4.00;;;12.60;99.90;;;;;;5785830;41;20044;-70
2021/06/22 03:44:00;;;;;;;10.07;4.10;;;12.70;99.90;;;;;;5808282;40;20060;-70
2021/06/22 03:48:02;;;;;;;12.00;4.45;;;12.70;99.90;;;;;;5789768;40;20057;-71
2021/06/22 03:52:09;;;;;;;15.15;3.70;;;12.80;99.90;;;;;;5806466;40;20084;-71
2021/06/22 03:56:11;;;;;;;13.02;4.25;;;12.90;99.90;;;;;;5788184;40;20056;-71
2021/06/22 04:00:27;;;;;;;16.45;3.88;;;12.90;99.90;;;;;;5791037;40;20064;-72
2021/06/22 04:04:34;;;;;;;14.45;3.75;;;12.90;99.90;;;;;;5787679;40;20110;-73
2021/06/22 04:08:42;;;;;;;16.60;4.35;;;13.00;99.90;;;;;;5805044;40;20136;-71
2021/06/22 04:12:50;;;;;;;15.43;4.63;;;13.20;99.90;;;;;;5802602;40;20045;-71
2021/06/22 04:16:52;;;;;;;15.55;4.15;;;13.10;99.90;;;;;;5791449;40;20064;-71
2021/06/22 04:20:56;;;;;;;15.85;4.15;;;13.10;99.90;;;;;;5794705;40;20044;-71
2021/06/22 04:25:04;;;;;;;17.13;4.43;;;13.20;99.90;;;;;;5803963;40;20058;-70
2021/06/22 04:29:07;;;;;;;15.52;4.20;;;13.20;99.90;;;;;;5789215;40;20685;-71
2021/06/22 04:33:08;;;;;;;9.15;3.85;;;13.20;99.80;;;;;;5799265;40;20167;-71
2021/06/22 04:37:10;;;;;;;17.15;4.55;;;13.30;99.90;;;;;;5805102;40;20052;-71
2021/06/22 04:41:13;;;;;;;12.07;4.20;;;13.30;99.90;;;;;;5787084;40;20068;-71
2021/06/22 04:45:18;;;;;;;14.48;4.32;;;13.50;99.90;;;;;;5787546;40;20121;-71
2021/06/22 04:49:21;;;;;;;16.33;4.50;;;13.60;99.70;;;;;;5800544;40;20051;-71
2021/06/22 04:53:25;;;;;;;17.30;4.68;;;13.80;99.50;;;;;;5788392;40;20044;-72
2021/06/22 04:57:26;;;;;;;13.25;4.47;;;13.90;99.50;;;;;;5801007;40;20071;-72
2021/06/22 05:01:28;;;;;;;;;;;13.80;99.40;;;;;;5797477;40;20060;-71
2021/06/22 05:05:30;;;;;;;11.60;3.78;;;14.20;99.40;;;;;;5786557;40;19935;-71
2021/06/22 05:09:32;;;;;;;15.57;4.00;;;14.30;99.10;;;;;;5793529;40;20051;-70
2021/06/22 05:13:34;;;;;;;13.85;4.13;;;14.50;99.10;;;;;;5790749;41;20048;-70
2021/06/22 05:17:37;;;;;;;12.80;3.58;;;14.60;98.90;;;;;;5789726;40;20109;-70
2021/06/22 05:21:39;;;;;;;14.75;3.83;;;14.70;98.90;;;;;;5787404;40;20076;-71
2021/06/22 05:25:41;;;;;;;13.30;3.63;;;14.70;98.80;;;;;;5789068;40;20156;-71
2021/06/22 05:29:43;;;;;;;14.57;3.33;;;14.80;98.80;;;;;;5788472;40;20060;-70
2021/06/22 05:33:44;;;;;;;15.93;3.67;;;14.80;98.80;;;;;;5786733;40;20060;-70
2021/06/22 05:37:46;;;;;;;12.57;2.97;;;14.90;98.80;;;;;;5791480;40;20088;-72
2021/06/22 05:41:48;;;;;;;11.88;2.80;;;14.90;98.70;;;;;;5789606;40;20060;-71
2021/06/22 05:45:50;;;;;;;12.13;2.92;;;14.70;98.90;;;;;;5789538;40;20316;-73
2021/06/22 05:49:55;;;;;;;15.25;3.10;;;14.80;98.70;;;;;;5789849;40;20065;-71
2021/06/22 05:53:56;;;;;;;17.85;3.75;;;14.90;98.60;;;;;;5791212;40;20060;-70
2021/06/22 05:58:00;;;;;;;15.20;3.03;;;15.00;98.30;;;;;;5794115;40;20309;-70
2021/06/22 06:02:02;;;;;;;9.10;2.60;;;15.00;98.40;;;;;;5789575;40;20306;-71
2021/06/22 06:06:04;;;;;;;10.25;2.65;;;15.10;98.20;;;;;;5798586;40;20060;-70
2021/06/22 06:10:08;;;;;;;12.82;2.42;;;15.10;98.10;;;;;;5808280;40;20061;-69
2021/06/22 06:14:10;;;;;;;9.05;1.98;;;15.10;97.90;;;;;;5800181;40;20311;-70
2021/06/22 06:18:12;;;;;;;9.48;2.20;;;15.20;97.90;;;;;;5793138;40;20049;-71
2021/06/22 06:22:14;;;;;;;13.15;2.40;;;15.10;98.10;;;;;;5805746;40;20048;-71
2021/06/22 06:26:18;;;;;;;12.95;2.22;;;15.20;98.20;;;;;;5791742;40;20321;-70
2021/06/22 06:30:24;;;;;;;12.70;2.17;;;15.30;97.90;;;;;;5787609;41;20052;-71
2021/06/22 06:34:26;;;;;;;14.73;2.60;;;15.30;97.40;;;;;;5790837;40;20088;-70
2021/06/22 06:38:28;;;;;;;15.48;2.97;;;15.80;97.80;;;;;;5790601;40;20184;-70
2021/06/22 06:42:30;;;;;;;12.80;2.28;;;15.20;97.80;;;;;;5786150;40;20384;-70
2021/06/22 06:46:32;;;;;;;11.20;1.75;;;15.30;97.40;;;;;;5797651;40;20069;-70
2021/06/22 06:50:34;;;;;;;16.67;2.65;;;15.40;97.50;;;;;;5790788;40;20047;-71
2021/06/22 06:54:36;;;;;;;10.38;2.33;;;15.50;96.80;;;;;;5793637;40;20098;-70
2021/06/22 06:58:38;;;;;;;14.52;2.53;;;15.60;96.90;;;;;;5792601;40;20093;-70
2021/06/22 07:02:40;;;;;;;11.60;1.88;;;15.60;96.70;;;;;;5789833;40;20124;-70
2021/06/22 07:06:42;;;;;;;10.70;2.78;;;15.60;96.20;;;;;;5805398;40;20076;-70
2021/06/22 07:10:44;;;;;;;13.55;2.25;;;15.70;96.00;;;;;;5803569;40;20443;-70
2021/06/22 07:14:45;;;;;;;14.55;2.22;;;15.70;96.40;;;;;;5804719;40;20332;-71
2021/06/22 07:18:48;;;;;;;7.93;2.13;;;15.60;96.30;;;;;;5791998;40;20071;-70
2021/06/22 07:22:50;;;;;;;9.45;1.95;;;15.70;96.40;;;;;;5791064;40;20068;-70
2021/06/22 07:26:51;;;;;;;;;;;15.70;95.80;;;;;;5790085;40;20052;-70
2021/06/22 07:30:53;;;;;;;9.13;1.63;;;15.70;96.80;;;;;;5787098;40;20347;-70
2021/06/22 07:34:55;;;;;;;9.43;1.88;;;15.70;96.00;;;;;;5789734;40;20072;-70
2021/06/22 07:38:58;;;;;;;15.07;1.95;;;15.70;95.80;;;;;;5791213;40;20045;-69
2021/06/22 07:43:00;;;;;;;13.82;2.42;;;16.00;95.60;;;;;;5805537;40;20417;-71
2021/06/22 07:47:03;;;;;;;10.85;1.60;;;15.70;95.50;;;;;;5787341;40;20369;-70
2021/06/22 07:51:05;;;;;;;18.23;2.00;;;15.80;95.70;;;;;;5799852;40;20053;-70
2021/06/22 07:55:13;;;;;;;;;;;15.80;95.60;;;;;;5791792;40;20072;-70
2021/06/22 07:59:15;;;;;;;8.85;2.20;;;15.80;96.30;;;;;;5806613;40;20131;-71
2021/06/22 08:03:20;;;;;;;15.05;1.98;;;15.70;96.10;;;;;;5785503;40;20475;-70
2021/06/22 08:07:22;;;;;;;11.20;2.00;;;15.80;95.60;;;;;;5790413;40;20136;-70
2021/06/22 08:11:24;;;;;;;11.98;1.80;;;15.80;95.60;;;;;;5795916;40;20170;-69
2021/06/22 08:15:26;;;;;;;11.30;1.77;;;15.80;95.70;;;;;;5787596;40;20605;-69
2021/06/22 08:19:29;;;;;;;10.30;2.10;;;15.80;95.70;;;;;;5790382;41;20064;-70
2021/06/22 08:23:31;;;;;;;11.10;1.92;;;16.00;95.20;;;;;;5785930;40;20059;-70
2021/06/22 08:27:33;;;;;;;14.45;2.42;;;15.80;95.90;;;;;;5789201;40;20057;-70
2021/06/22 08:31:35;;;;;;;12.00;2.22;;;15.90;95.50;;;;;;5784582;40;20305;-70
2021/06/22 08:35:38;;;;;;;10.43;2.25;;;16.00;95.10;;;;;;5803905;40;20376;-70
2021/06/22 08:39:40;;;;;;;9.95;2.05;;;15.90;95.50;;;;;;5789287;40;20443;-70
2021/06/22 08:43:44;;;;;;;11.57;2.17;;;16.20;95.00;;;;;;5789734;40;20049;-70
2021/06/22 08:47:46;;;;;;;8.60;1.50;;;16.20;94.40;;;;;;5789869;40;20124;-70
2021/06/22 08:51:48;;;;;;;12.55;2.25;;;16.20;94.80;;;;;;5789454;40;20431;-70
2021/06/22 08:55:50;;;;;;;13.20;1.80;;;16.30;94.50;;;;;;5804610;40;20323;-70
2021/06/22 08:59:52;;;;;;;7.60;1.50;;;16.30;94.40;;;;;;5789362;40;20156;-70
2021/06/22 09:03:55;;;;;;;9.27;1.88;;;16.30;94.40;;;;;;5797667;40;20056;-70
2021/06/22 09:07:57;;;;;;;;;;;16.30;94.40;;;;;;5790538;41;20044;-70
2021/06/22 09:12:06;;;;;;;10.70;1.90;;;16.30;95.20;;;;;;5807245;40;19959;-70
2021/06/22 09:16:16;;;;;;;13.48;2.33;;;16.40;95.00;;;;;;5791606;41;20464;-70
2021/06/22 09:20:40;;;;;;;9.57;2.30;;;16.50;95.20;;;;;;5793844;40;20145;-71
2021/06/22 09:25:08;;;;;;;9.98;1.92;;;16.50;94.70;;;;;;5793890;40;20452;-70
2021/06/22 09:29:14;;;;;;;14.02;3.47;;;16.50;95.10;;;;;;5791597;40;20055;-70
2021/06/22 09:33:17;;;;;;;14.27;2.08;;;16.60;94.50;;;;;;5776053;40;20048;-70
2021/06/22 09:37:19;;;;;;;13.25;2.03;;;16.40;94.80;;;;;;5790801;40;20069;-70
2021/06/22 09:41:35;;;;;;;8.73;2.40;;;16.60;94.90;;;;;;5792897;40;20055;-70
2021/06/22 09:45:38;;;;;;;11.50;2.38;;;16.70;94.40;;;;;;5806278;40;20065;-70
2021/06/22 09:49:40;;;;;;;12.05;2.28;;;16.70;94.30;;;;;;5792816;40;20121;-70
2021/06/22 09:53:45;;;;;;;13.15;2.33;;;17.30;94.70;;;;;;5790925;40;20044;-71
2021/06/22 09:57:46;;;;;;;12.75;2.33;;;16.80;94.40;;;;;;5789773;40;20569;-70
2021/06/22 10:01:48;;;;;;;8.00;2.15;;;16.70;94.20;;;;;;5792703;40;20061;-70
2021/06/22 10:05:51;;;;;;;8.18;1.48;;;17.40;94.10;;;;;;5790353;40;20107;-70
2021/06/22 10:09:56;;;;;;;13.60;2.25;;;16.60;94.00;;;;;;5806203;40;20104;-70
2021/06/22 10:13:58;;;;;;;10.02;1.80;;;16.60;94.10;;;;;;5798191;40;20080;-70
2021/06/22 10:18:01;;;;;;;10.50;1.90;;;16.60;94.50;;;;;;5807639;40;20137;-71
2021/06/22 10:22:05;;;;;;;10.52;2.20;;;16.80;94.50;;;;;;5789564;40;20401;-70
2021/06/22 10:26:07;;;;;;;15.13;2.25;;;16.60;94.00;;;;;;5791084;40;20092;-71
2021/06/22 10:30:10;;;;;;;13.02;2.22;;;16.60;94.20;;;;;;5805109;40;20274;-70
2021/06/22 10:34:12;;;;;;;12.63;2.10;;;16.70;94.00;;;;;;5793656;40;20056;-69
2021/06/22 10:38:17;;;;;;;12.32;2.10;;;16.60;94.50;;;;;;5805678;40;20370;-70
2021/06/22 10:42:20;;;;;;;9.30;2.00;;;16.50;94.70;;;;;;5795347;40;20148;-70
2021/06/22 10:46:23;;;;;;;9.48;1.90;;;16.50;94.40;;;;;;5787108;40;20249;-69
2021/06/22 10:50:25;;;;;;;11.60;1.70;;;16.60;94.20;;;;;;5806869;40;20072;-70
2021/06/22 10:54:51;;;;;;;17.90;2.10;;;16.60;94.40;;;;;;5800609;40;20061;-70
2021/06/22 10:59:20;;;;;;;14.02;2.33;;;16.60;93.80;;;;;;5791521;40;20086;-70
2021/06/22 11:03:28;;;;;;;14.93;1.75;;;16.50;94.60;;;;;;5790948;40;20041;-70
2021/06/22 11:07:30;;;;;;;11.82;1.63;;;16.50;94.60;;;;;;5804665;40;20088;-70
2021/06/22 11:11:32;;;;;;;;;;;16.50;94.80;;;;;;5800169;40;20367;-70
2021/06/22 11:15:50;;;;;;;9.57;1.90;;;16.50;94.80;;;;;;5793694;40;19994;-71
2021/06/22 11:20:06;;;;;;;14.75;2.42;;;16.60;94.10;;;;;;5793145;40;20556;-70
2021/06/22 11:24:14;;;;;;;12.32;2.13;;;16.60;94.40;;;;;;5791657;40;20129;-71
2021/06/22 11:28:18;;;;;;;12.23;2.08;;;16.60;94.40;;;;;;5792293;40;20420;-70
2021/06/22 11:32:28;;;;;;;13.68;2.30;;;16.60;94.70;;;;;;5805736;40;20063;-70
2021/06/22 11:36:32;;;;;;;12.57;2.90;;;16.60;94.50;;;;;;5807975;40;20053;-71
2021/06/22 11:40:34;;;;;;;19.60;3.05;;;16.50;94.60;;;;;;5799433;40;20056;-70
2021/06/22 11:44:48;;;;;;;13.32;1.98;;;16.60;94.70;;;;;;5806170;40;20080;-70
2021/06/22 11:48:57;;;;;;;12.85;2.00;;;16.60;94.40;;;;;;5792204;40;20112;-70
2021/06/22 11:53:02;;;;;;;14.13;2.08;;;16.60;94.70;;;;;;5792448;40;20053;-71
2021/06/22 11:57:04;;;;;;;17.25;2.65;;;16.60;94.90;;;;;;5806426;40;20064;-70
2021/06/22 12:01:06;;;;;;;;;;;16.70;94.90;;;;;;5793128;40;20052;-72
2021/06/22 12:05:12;;;;;;;16.80;2.72;;;16.70;95.10;;;;;;5792506;40;20026;-71
2021/06/22 12:09:19;;;;;;;13.77;2.50;;;16.60;94.90;;;;;;5790990;40;20080;-70
2021/06/22 12:13:51;;;;;;;13.15;2.30;;;16.60;95.00;;;;;;5792821;40;20730;-70
2021/06/22 12:17:52;;;;;;;14.57;2.13;;;16.50;95.00;;;;;;5789056;40;20092;-71
2021/06/22 12:21:58;;;;;;;13.13;2.53;;;16.50;95.10;;;;;;5791310;40;20056;-71
2021/06/22 12:26:00;;;;;;;13.43;2.63;;;16.20;94.90;;;;;;5790378;40;20128;-71
2021/06/22 12:30:02;;;;;;;28.58;2.95;;;16.60;95.10;;;;;;5790770;40;20057;-70
2021/06/22 12:34:06;;;;;;;12.05;2.45;;;16.60;94.70;;;;;;5790934;40;20092;-69
2021/06/22 12:38:11;;;;;;;15.10;2.33;;;16.70;94.70;;;;;;5791123;40;20064;-70
2021/06/22 12:42:19;;;;;;;18.13;2.72;;;16.50;94.70;;;;;;5787972;40;20067;-71
2021/06/22 12:46:24;;;;;;;23.85;2.70;;;16.40;94.80;;;;;;5806201;40;20048;-72
2021/06/22 12:50:34;;;;;;;10.63;2.13;;;16.40;94.80;;;;;;5804922;40;20052;-71
2021/06/22 12:54:39;;;;;;;15.82;2.55;;;16.40;94.80;;;;;;5798369;40;20079;-72
2021/06/22 12:58:57;;;;;;;13.75;2.22;;;16.30;94.90;;;;;;5791894;40;20111;-72
2021/06/22 13:03:27;;;;;;;12.68;2.72;;;16.30;95.20;;;;;;5790555;40;20060;-71
2021/06/22 13:07:31;;;;;;;13.30;2.70;;;16.30;95.10;;;;;;5787527;40;20056;-72
2021/06/22 13:11:38;;;;;;;15.20;2.30;;;16.30;95.00;;;;;;5788426;40;20421;-72
2021/06/22 13:15:40;;;;;;;15.50;2.30;;;16.30;95.00;;;;;;5789093;40;20365;-72
2021/06/22 13:19:42;;;;;;;;;;;16.30;94.90;;;;;;5790779;40;20061;-71
2021/06/22 13:23:44;;;;;;;12.80;2.57;;;16.70;95.20;;;;;;5789016;40;19973;-72
2021/06/22 13:27:52;;;;;;;;;;;16.30;95.00;;;;;;5791589;40;20413;-72
2021/06/22 13:31:59;;;;;;;13.95;3.10;;;16.70;95.30;;;;;;5788818;41;19941;-73
2021/06/22 13:36:01;;;;;;;13.50;2.72;;;16.40;95.00;;;;;;5790934;40;20060;-72
2021/06/22 13:40:07;;;;;;;16.00;2.20;;;16.40;95.30;;;;;;5788009;40;20041;-72
2021/06/22 13:44:09;;;;;;;13.38;2.70;;;16.40;94.90;;;;;;5789634;40;20340;-72
2021/06/22 13:48:17;;;;;;;17.25;3.00;;;16.40;94.80;;;;;;5787845;40;20356;-72
2021/06/22 13:52:19;;;;;;;15.90;2.70;;;16.30;95.10;;;;;;5789045;40;20049;-72
2021/06/22 13:56:21;;;;;;;;;;;16.30;95.10;;;;;;5790513;40;20084;-72
2021/06/22 14:00:23;;;;;;;13.43;2.97;;;16.30;95.20;;;;;;5791354;40;19971;-71
2021/06/22 14:04:25;;;;;;;14.23;2.35;;;16.30;95.30;;;;;;5806330;40;20560;-71
2021/06/22 14:08:27;;;;;;;15.60;2.28;;;16.30;95.00;;;;;;5790773;40;20140;-71
2021/06/22 14:12:29;;;;;;;;;;;16.20;95.20;;;;;;5793124;40;20052;-72
2021/06/22 14:16:33;;;;;;;16.30;2.65;;;16.20;95.50;;;;;;5790600;40;19939;-71
2021/06/22 14:20:36;;;;;;;12.05;2.30;;;16.40;95.50;;;;;;5801716;40;20088;-73
2021/06/22 14:24:38;;;;;;;15.45;2.90;;;16.20;95.30;;;;;;5806649;40;20060;-72
2021/06/22 14:28:40;;;;;;;17.20;3.10;;;16.00;95.30;;;;;;5792165;40;20064;-72
2021/06/22 14:32:44;;;;;;;13.57;2.45;;;16.30;95.20;;;;;;5806851;40;20064;-72
2021/06/22 14:36:46;;;;;;;16.38;2.72;;;16.30;95.30;;;;;;5789723;40;20083;-72
2021/06/22 14:40:48;;;;;;;17.48;3.13;;;16.20;95.30;;;;;;5790135;40;20059;-71
2021/06/22 14:44:51;;;;;;;17.55;3.13;;;16.20;95.20;;;;;;5790897;40;20064;-71
2021/06/22 14:48:53;;;;;;;16.52;3.13;;;16.20;95.10;;;;;;5800356;40;20554;-72
2021/06/22 14:52:55;;;;;;;18.70;3.63;;;16.30;95.20;;;;;;5788889;40;20041;-72
2021/06/22 14:56:57;;;;;;;18.48;3.75;;;16.30;95.20;;;;;;5790832;40;20140;-72
2021/06/22 15:01:00;;;;;;;20.17;3.53;;;16.30;95.30;;;;;;5791174;40;20080;-71
2021/06/22 15:05:02;;;;;;;18.08;3.30;;;16.30;95.40;;;;;;5807488;40;20056;-71
2021/06/22 15:09:05;;;;;;;17.23;3.15;;;16.30;95.30;;;;;;5785970;40;20320;-72
2021/06/22 15:13:06;;;;;;;13.02;2.80;;;16.80;95.60;;;;;;5796911;40;21669;-73
2021/06/22 15:17:08;;;;;;;16.55;3.05;;;16.60;95.50;;;;;;5788210;40;20072;-72
2021/06/22 15:21:10;;;;;;;25.50;3.80;;;16.30;95.60;;;;;;5791939;40;20149;-72
2021/06/22 15:25:13;;;;;;;18.38;3.75;;;16.30;95.60;;;;;;5793714;40;20067;-71
2021/06/22 15:29:27;;;;;;;15.40;3.20;;;16.60;95.60;;;;;;5792003;40;20052;-71
2021/06/22 15:33:29;;;;;;;22.70;4.95;;;16.30;95.50;;;;;;5791278;40;20221;-71
2021/06/22 15:37:31;;;;;;;20.27;3.67;;;16.30;95.50;;;;;;5804762;40;20041;-72
2021/06/22 15:41:32;;;;;;;18.77;3.60;;;16.20;95.80;;;;;;5789353;40;20061;-73
2021/06/22 15:45:36;;;;;;;19.92;3.47;;;16.20;95.70;;;;;;5791101;41;20052;-71
2021/06/22 15:49:38;;;;;;;19.27;4.05;;;16.30;95.60;;;;;;5804936;40;20049;-71
2021/06/22 15:53:40;;;;;;;24.40;4.18;;;16.20;95.70;;;;;;5788071;40;20064;-72
2021/06/22 15:57:46;;;;;;;25.27;4.55;;;16.20;95.80;;;;;;5789166;40;20440;-72
2021/06/22 16:01:49;;;;;;;21.35;4.25;;;16.10;96.00;;;;;;5798688;40;20045;-71
2021/06/22 16:05:51;;;;;;;28.27;4.68;;;16.10;96.00;;;;;;5803980;40;20088;-70
2021/06/22 16:09:53;;;;;;;30.52;4.22;;;16.00;96.10;;;;;;5788831;40;20064;-69
2021/06/22 16:13:56;;;;;;;30.65;4.88;;;15.90;96.10;;;;;;5804559;40;20057;-69
2021/06/22 16:18:00;;;;;;;24.75;4.28;;;16.00;96.20;;;;;;5788160;40;20426;-70
2021/06/22 16:22:02;;;;;;;28.45;3.97;;;16.00;96.10;;;;;;5790222;40;20045;-70
2021/06/22 16:26:05;;;;;;;27.55;4.78;;;15.90;96.20;;;;;;5788595;40;20188;-70
2021/06/22 16:30:07;;;;;;;;;;;15.90;96.40;;;;;;5789832;40;20150;-70
2021/06/22 16:34:08;;;;;;;36.05;5.28;;;15.90;96.20;;;;;;5788749;40;20003;-70
2021/06/22 16:38:10;;;;;;;26.27;4.38;;;15.90;96.30;;;;;;5789886;40;20077;-70
2021/06/22 16:42:12;;;;;;;26.67;4.10;;;16.00;96.30;;;;;;5788583;40;20187;-70
2021/06/22 16:46:15;;;;;;;19.83;5.25;;;16.00;96.50;;;;;;5788688;40;20077;-70
2021/06/22 16:50:18;;;;;;;23.25;4.57;;;15.90;96.50;;;;;;5789761;40;20065;-70
2021/06/22 16:54:20;;;;;;;24.88;4.75;;;15.90;96.50;;;;;;5790876;40;20149;-70
2021/06/22 16:58:22;;;;;;;20.35;4.63;;;15.90;96.60;;;;;;5790039;40;20064;-70
2021/06/22 17:02:24;;;;;;;21.92;5.18;;;15.90;96.70;;;;;;5804081;40;20703;-70
2021/06/22 17:06:26;;;;;;;19.58;4.00;;;15.90;96.60;;;;;;5788793;40;20068;-70
2021/06/22 17:10:28;;;;;;;24.02;5.50;;;15.90;96.70;;;;;;5798757;40;20068;-70
2021/06/22 17:14:30;;;;;;;;;;;15.30;96.60;;;;;;5799539;40;20520;-70
2021/06/22 17:18:33;;;;;;;20.85;4.00;;;15.90;96.50;;;;;;5788301;40;20173;-70
2021/06/22 17:22:35;;;;;;;20.77;4.28;;;16.00;96.70;;;;;;5788330;40;20065;-70
2021/06/22 17:26:37;;;;;;;17.80;4.13;;;16.00;96.80;;;;;;5801954;40;20040;-70
2021/06/22 17:30:39;;;;;;;19.40;4.85;;;16.00;96.80;;;;;;5806017;40;20075;-70
2021/06/22 17:34:41;;;;;;;20.45;4.70;;;16.00;96.70;;;;;;5790957;40;20131;-70
2021/06/22 17:38:43;;;;;;;17.02;4.18;;;15.90;96.80;;;;;;5804749;40;20130;-70
2021/06/22 17:42:45;;;;;;;19.02;4.65;;;16.10;96.80;;;;;;5792008;40;20080;-70
2021/06/22 17:46:48;;;;;;;21.83;4.18;;;16.00;96.80;;;;;;5806528;40;20060;-70
2021/06/22 17:50:50;;;;;;;25.40;4.35;;;16.10;96.70;;;;;;5807207;40;20080;-70
2021/06/22 17:54:51;;;;;;;15.25;3.58;;;16.10;96.70;;;;;;5791158;40;20057;-70
2021/06/22 17:58:53;;;;;;;14.45;4.95;;;16.10;96.70;;;;;;5789416;40;20044;-71
2021/06/22 18:02:55;;;;;;;19.38;4.03;;;16.20;96.70;;;;;;5789102;40;20405;-70
2021/06/22 18:07:00;;;;;;;21.02;4.32;;;16.00;96.80;;;;;;5801868;40;20080;-70
2021/06/22 18:11:02;;;;;;;21.38;4.18;;;16.10;96.70;;;;;;5791212;41;20051;-70
2021/06/22 18:15:05;;;;;;;;;;;16.10;96.80;;;;;;5796512;40;20061;-70
2021/06/22 18:19:07;;;;;;;16.52;3.80;;;16.10;96.90;;;;;;5789707;40;19947;-70
2021/06/22 18:23:09;;;;;;;18.58;4.05;;;16.00;96.80;;;;;;5790492;40;20096;-70
2021/06/22 18:27:11;;;;;;;19.48;4.25;;;16.00;96.80;;;;;;5790385;40;20052;-69
2021/06/22 18:31:13;;;;;;;21.45;5.05;;;16.00;96.90;;;;;;5789761;40;20049;-71
2021/06/22 18:35:16;;;;;;;;;;;16.00;96.80;;;;;;5798582;40;20317;-70
2021/06/22 18:39:18;;;;;;;18.88;4.32;;;16.00;96.70;;;;;;5805211;40;19939;-71
2021/06/22 18:43:20;;;;;;;17.75;4.13;;;15.90;96.90;;;;;;5791734;40;20143;-70
2021/06/22 18:47:22;;;;;;;18.35;4.40;;;15.90;97.00;;;;;;5789649;40;20062;-70
2021/06/22 18:51:23;;;;;;;21.17;4.45;;;15.80;97.00;;;;;;5789479;40;20302;-70
2021/06/22 18:55:25;;;;;;;20.52;4.15;;;15.80;97.00;;;;;;5789600;40;20088;-70
2021/06/22 18:59:29;;;;;;;21.67;5.07;;;15.80;97.20;;;;;;5805086;40;20044;-70
2021/06/22 19:03:31;;;;;;;18.13;4.40;;;15.80;97.10;;;;;;5808561;40;20092;-70
2021/06/22 19:07:33;;;;;;;21.73;4.72;;;15.80;97.20;;;;;;5819812;40;20056;-70
2021/06/22 19:11:35;;;;;;;18.88;4.88;;;15.70;97.20;;;;;;5815973;40;20050;-70
2021/06/22 19:15:45;;;;;;;23.15;4.63;;;15.70;97.30;;;;;;5804290;40;20060;-69
2021/06/22 19:19:47;;;;;;;15.85;4.65;;;15.70;97.30;;;;;;5806958;40;20044;-70
2021/06/22 19:23:50;;;;;;;18.17;4.60;;;15.70;97.40;;;;;;5804747;40;20060;-70
2021/06/22 19:27:52;;;;;;;21.23;4.88;;;15.70;97.30;;;;;;5806145;40;20198;-70
2021/06/22 19:31:54;;;;;;;19.02;4.35;;;15.70;97.40;;;;;;5819722;40;20047;-70
2021/06/22 19:35:57;;;;;;;;;;;15.70;97.30;;;;;;5806564;40;20528;-70
2021/06/22 19:39:59;;;;;;;14.70;3.88;;;15.60;97.00;;;;;;5806365;40;19998;-70
2021/06/22 19:44:01;;;;;;;20.73;4.68;;;15.60;97.30;;;;;;5819414;40;20064;-70
2021/06/22 19:48:04;;;;;;;20.42;4.60;;;15.30;97.30;;;;;;5804179;40;20563;-70
2021/06/22 19:52:06;;;;;;;25.23;5.22;;;15.60;97.40;;;;;;5805346;40;20084;-70
2021/06/22 19:56:08;;;;;;;19.63;4.55;;;15.60;97.40;;;;;;5820631;40;20408;-70
2021/06/22 20:00:11;;;;;;;16.63;4.55;;;15.50;97.50;;;;;;5804330;40;20052;-70
2021/06/22 20:04:13;;;;;;;20.00;4.43;;;15.50;97.50;;;;;;5812818;40;20048;-70
2021/06/22 20:08:14;;;;;;;20.23;4.95;;;15.50;97.60;;;;;;5805324;40;20074;-70
2021/06/22 20:12:16;;;;;;;16.67;4.20;;;15.50;97.60;;;;;;5804916;40;20064;-70
2021/06/22 20:16:18;;;;;;;25.13;5.40;;;15.50;97.60;;;;;;5814699;40;20061;-71
2021/06/22 20:20:20;;;;;;;15.93;4.68;;;16.10;97.80;;;;;;5805478;40;20054;-70
2021/06/22 20:24:23;;;;;;;22.45;4.45;;;15.40;97.70;;;;;;5821230;40;20048;-70
2021/06/22 20:28:25;;;;;;;20.05;4.93;;;15.40;97.70;;;;;;5804578;40;20441;-70
2021/06/22 20:32:27;;;;;;;20.02;4.53;;;15.40;97.80;;;;;;5806754;40;20063;-70
2021/06/22 20:36:29;;;;;;;23.55;5.10;;;15.40;97.80;;;;;;5805561;40;20128;-70
2021/06/22 20:40:31;;;;;;;22.23;5.00;;;15.30;97.80;;;;;;5819347;40;20103;-71
2021/06/22 20:44:33;;;;;;;19.10;5.07;;;15.40;97.80;;;;;;5804549;40;20052;-71
2021/06/22 20:48:35;;;;;;;17.73;4.90;;;15.30;97.90;;;;;;5804822;40;20469;-70
2021/06/22 20:52:37;;;;;;;21.98;5.13;;;15.30;97.90;;;;;;5806723;40;20159;-70
2021/06/22 20:56:39;;;;;;;22.95;4.63;;;15.30;98.00;;;;;;5811359;40;20108;-70
2021/06/22 21:00:41;;;;;;;;;;;15.30;98.00;;;;;;5805705;40;20068;-70
2021/06/22 21:04:43;;;;;;;21.57;4.70;;;15.30;97.50;;;;;;5804863;40;19996;-70